Flight Track Log - Related Links

Times and Time Zones

All times are in EDT time to prevent confusion due to time zone crossing. See the EGF4260 flight status page for this flight to view local times or setup timezone preferences in your user account.

Time Position Orientation Groundspeed Altitude Reporting Facility
EDT Latitude Longitude Course Direction KTS MPH feet Rate Location/Type
Mon 04:55:42 PM 41.9500 -87.9000 159° South 163 188 1,600  Level Chicago TRACON
Mon 04:56:42 PM 41.9000 -87.9000 180° South 197 227 3,800 1,932 Climbing Chicago TRACON
Mon 04:58:00 PM 41.7197 -87.6012 157° South  Level Estimated
Mon 04:58:08 PM 41.8097 -87.8783 170° South 241 277 6,300  Level Chicago Center
Mon 04:59:00 PM 41.6322 -87.4999 156° South  Level Estimated
Mon 04:59:10 PM 41.7300 -87.8106 148° Southeast 282 325 8,800  Level Chicago Center
Mon 05:00:00 PM 41.5446 -87.3989 159° South  Level Estimated
Mon 05:00:15 PM 41.6564 -87.7525 149° Southeast 304 350 11,100  Level Chicago Center
Mon 05:01:17 PM 41.5794 -87.6947 151° Southeast 314 361 12,900 1,392 Climbing Chicago Center
Mon 05:02:20 PM 41.4958 -87.6281 149° Southeast 343 395 14,000 1,008 Climbing Chicago Center
Mon 05:03:22 PM 41.4039 -87.5569 150° Southeast 374 430 15,000 1,210 Climbing Chicago Center
Mon 05:04:24 PM 41.2894 -87.4697 150° Southeast 393 452 16,500 1,452 Climbing Chicago Center
Mon 05:05:26 PM 41.1922 -87.3972 151° Southeast 401 461 18,000 1,500 Climbing Chicago Center
Mon 05:06:28 PM 41.0975 -87.3242 150° Southeast 397 457 19,600 1,452 Climbing Chicago Center
Mon 05:07:30 PM 41.0003 -87.2517 151° Southeast 400 460 21,000 1,161 Climbing Chicago Center
Mon 05:08:32 PM 40.9019 -87.1758 150° Southeast 410 472 22,000 919 Climbing Chicago Center
Mon 05:09:34 PM 40.7997 -87.0994 150° Southeast 423 487 22,900 484 Climbing Chicago Center
Mon 05:10:36 PM 40.6733 -87.0042 150° Southeast 443 510 23,000 48 Climbing Chicago Center
Mon 05:11:38 PM 40.5619 -86.9206 150° Southeast 458 527 23,000  Level Chicago Center
Mon 05:12:40 PM 40.4511 -86.8383 151° Southeast 457 526 23,000  Level Chicago Center
Mon 05:13:42 PM 40.3406 -86.7558 150° Southeast 456 525 23,000  Level Chicago Center
Mon 05:14:44 PM 40.2294 -86.6739 151° Southeast 456 525 23,000  Level Chicago Center
Mon 05:15:46 PM 40.1006 -86.5792 151° Southeast 453 521 23,000  Level Chicago Center
Mon 05:16:32 PM 40.0250 -86.5219 150° Southeast 457 526 23,000 -1,222 Level Indianapolis Center
Mon 05:17:34 PM 39.9167 -86.4433 151° Southeast 446 513 20,800 -2,352 Descending Indianapolis Center
Mon 05:18:37 PM 39.8000 -86.3333 144° Southeast 422 486 18,100 -2,390 Descending Indianapolis TRACON
Mon 05:19:37 PM 39.7667 -86.2000 108° East 414 476 15,900 -1,672 Descending Indianapolis TRACON
Mon 05:20:39 PM 39.7178 -86.0786 118° Southeast 408 470 14,700 -919 Descending Indianapolis Center
Mon 05:21:41 PM 39.6725 -85.9456 114° Southeast 399 459 14,000 -387 Descending Indianapolis Center
Mon 05:22:43 PM 39.6278 -85.8125 114° Southeast 398 458 13,900 -1,024 Descending Indianapolis Center
Mon 05:23:44 PM 39.5769 -85.6606 113° Southeast 392 451 11,900 -1,415 Descending Indianapolis Center
Mon 05:24:46 PM 39.5333 -85.5344 114° Southeast 383 441 11,000 -435 Descending Indianapolis Center
Mon 05:25:48 PM 39.4797 -85.4144 120° Southeast 383 441 11,000 48 Level Indianapolis Center
Mon 05:26:50 PM 39.4208 -85.3019 124° Southeast 378 435 11,100 -435 Climbing Indianapolis Center
Mon 05:27:52 PM 39.3992 -85.1906 104° East 317 365 10,100 -1,220 Descending Indianapolis Center
Mon 05:28:53 PM 39.3772 -85.0892 106° East 294 338 8,600 -1,610 Descending Indianapolis Center
Mon 05:29:55 PM 39.3578 -84.9917 104° East 283 326 6,800 -1,452 Descending Indianapolis Center
Mon 05:30:57 PM 39.3364 -84.8844 104° East 266 306 5,600 -1,139 Descending Indianapolis Center
Mon 05:31:14 PM 39.3333 -84.8667 103° East 256 295 5,300 -434 Descending Cincinnati TRACON
Mon 05:32:20 PM 39.3167 -84.7500 100° East 260 299 5,000 -571 Descending Cincinnati TRACON
Mon 05:33:20 PM 39.2500 -84.7000 150° Southeast 254 292 4,100 -900 Descending Cincinnati TRACON

Login

Don't have an account? Register now (free) for customized features, flight alerts, and more!